Time;durP1;ratioP1;P1;durP2;ratioP2;P2;SDS_P1;SDS_P2;PMS_P1;PMS_P2;Temp;Humidity;BMP_temperature;BMP_pressure;BME280_temperature;BME280_humidity;BME280_pressure;Samples;Min_cycle;Max_cycle;Signal;HPM_P1;HPM_P2
2022/06/30 00:01:25;;;;;;;;;;;26.60;48.90;;;;;;1514763;77;765;-68
2022/06/30 00:03:27;;;;;;;;;;;26.70;48.90;;;;;;1515725;77;1379;-67
2022/06/30 00:05:28;;;;;;;;;;;26.70;48.90;;;;;;1513950;77;749;-68
2022/06/30 00:07:30;;;;;;;;;;;26.70;48.90;;;;;;1517925;77;734;-69
2022/06/30 00:09:32;;;;;;;;;;;26.60;48.90;;;;;;1516820;77;1105;-67
2022/06/30 00:11:34;;;;;;;;;;;26.50;48.80;;;;;;1512298;77;682;-68
2022/06/30 00:13:37;;;;;;;;;;;26.60;48.90;;;;;;1511606;77;719;-68
2022/06/30 00:15:39;;;;;;;;;;;26.60;48.90;;;;;;1504905;77;1942;-68
2022/06/30 00:17:40;;;;;;;;;;;26.70;48.80;;;;;;1512275;77;1604;-70
2022/06/30 00:19:45;;;;;;;;;;;26.60;48.80;;;;;;1515238;77;1182;-68
2022/06/30 00:21:46;;;;;;;;;;;26.60;48.80;;;;;;1511881;77;1670;-67
2022/06/30 00:23:48;;;;;;;;;;;26.60;48.80;;;;;;1509653;77;888;-68
2022/06/30 00:25:50;;;;;;;;;;;26.60;48.90;;;;;;1511510;77;714;-68
2022/06/30 00:27:52;;;;;;;;;;;26.70;48.80;;;;;;1507155;77;741;-68
2022/06/30 00:29:54;;;;;;;;;;;26.60;48.80;;;;;;1517850;77;1542;-68
2022/06/30 00:31:55;;;;;;;;;;;26.60;48.80;;;;;;1512003;77;698;-69
2022/06/30 00:33:57;;;;;;;;;;;26.60;48.70;;;;;;1512122;77;591;-68
2022/06/30 00:35:59;;;;;;;;;;;26.60;48.80;;;;;;1507425;77;1960;-70
2022/06/30 00:38:02;;;;;;;;;;;26.60;48.60;;;;;;1519096;77;728;-67
2022/06/30 00:40:05;;;;;;;;;;;26.60;48.60;;;;;;1513323;77;1173;-68
2022/06/30 00:42:07;;;;;;;;;;;26.60;48.60;;;;;;1508370;77;768;-68
2022/06/30 00:44:10;;;;;;;;;;;26.60;48.50;;;;;;1509178;77;1611;-68
2022/06/30 00:46:12;;;;;;;;;;;26.60;48.50;;;;;;1509422;77;622;-69
2022/06/30 00:48:14;;;;;;;;;;;26.60;48.40;;;;;;1507224;77;669;-70
2022/06/30 00:50:16;;;;;;;;;;;26.60;48.40;;;;;;1508287;77;1139;-70
2022/06/30 00:52:18;;;;;;;;;;;26.60;48.50;;;;;;1513622;77;714;-68
2022/06/30 00:54:20;;;;;;;;;;;26.60;48.40;;;;;;1516878;77;731;-68
2022/06/30 00:56:22;;;;;;;;;;;26.60;48.40;;;;;;1515834;77;1941;-68
2022/06/30 00:58:24;;;;;;;;;;;26.60;48.40;;;;;;1515783;77;1546;-68
2022/06/30 01:00:26;;;;;;;;;;;26.60;48.40;;;;;;1518301;77;1117;-68
2022/06/30 01:02:28;;;;;;;;;;;26.60;48.30;;;;;;1521028;77;813;-68
2022/06/30 01:04:30;;;;;;;;;;;26.60;48.30;;;;;;1510527;77;654;-69
2022/06/30 01:06:32;;;;;;;;;;;26.60;48.30;;;;;;1520853;77;681;-68
2022/06/30 01:08:34;;;;;;;;;;;26.60;48.20;;;;;;1516492;77;656;-69
2022/06/30 01:12:56;;;;;;;;;;;26.60;48.30;;;;;;1514189;77;1685;-66
2022/06/30 01:14:58;;;;;;;;;;;26.60;48.20;;;;;;1513162;77;808;-69
2022/06/30 01:17:00;;;;;;;;;;;26.50;48.30;;;;;;1513831;77;1956;-68
2022/06/30 01:19:02;;;;;;;;;;;26.60;48.30;;;;;;1516943;77;1143;-69
2022/06/30 01:21:04;;;;;;;;;;;26.60;48.30;;;;;;1508820;76;2116;-64
2022/06/30 01:23:06;;;;;;;;;;;26.60;48.30;;;;;;1484749;78;781;-64
2022/06/30 01:25:09;;;;;;;;;;;26.60;48.20;;;;;;1495974;78;686;-65
2022/06/30 01:27:11;;;;;;;;;;;26.60;48.30;;;;;;1497430;78;1533;-62
2022/06/30 01:29:13;;;;;;;;;;;26.60;48.40;;;;;;1501018;78;704;-64
2022/06/30 01:31:15;;;;;;;;;;;26.60;48.40;;;;;;1501446;78;1153;-63
2022/06/30 01:33:17;;;;;;;;;;;26.60;48.20;;;;;;1497421;78;782;-64
2022/06/30 01:35:19;;;;;;;;;;;26.60;48.20;;;;;;1498878;78;1943;-64
2022/06/30 01:37:21;;;;;;;;;;;26.50;48.20;;;;;;1498849;78;740;-64
2022/06/30 01:39:22;;;;;;;;;;;26.50;48.20;;;;;;1496533;78;846;-64
2022/06/30 01:41:24;;;;;;;;;;;26.50;48.20;;;;;;1499670;78;1599;-64
2022/06/30 01:43:26;;;;;;;;;;;26.60;48.10;;;;;;1499018;78;693;-65
2022/06/30 01:45:28;;;;;;;;;;;26.60;48.10;;;;;;1498104;78;811;-67
2022/06/30 01:47:30;;;;;;;;;;;26.50;48.10;;;;;;1514458;77;763;-63
2022/06/30 01:49:32;;;;;;;;;;;26.60;48.10;;;;;;1500988;78;1164;-64
2022/06/30 01:51:34;;;;;;;;;;;26.50;48.10;;;;;;1509641;77;696;-64
2022/06/30 01:53:35;;;;;;;;;;;26.60;47.90;;;;;;1508221;77;631;-64
2022/06/30 01:55:37;;;;;;;;;;;26.50;47.80;;;;;;1508605;77;1943;-65
2022/06/30 01:57:39;;;;;;;;;;;26.50;47.80;;;;;;1509119;77;668;-62
2022/06/30 01:59:41;;;;;;;;;;;26.50;47.70;;;;;;1511008;77;1150;-64
2022/06/30 02:01:43;;;;;;;;;;;26.60;47.70;;;;;;1504326;77;753;-64
2022/06/30 02:03:45;;;;;;;;;;;26.50;47.70;;;;;;1510824;77;769;-64
2022/06/30 02:05:47;;;;;;;;;;;26.50;47.80;;;;;;1506728;77;776;-64
2022/06/30 02:07:49;;;;;;;;;;;26.50;47.80;;;;;;1498053;77;684;-65
2022/06/30 02:09:53;;;;;;;;;;;26.50;47.80;;;;;;1507594;77;1578;-66
2022/06/30 02:12:45;;;;;;;;;;;26.50;47.80;;;;;;1508154;77;909;-64
2022/06/30 02:13:59;;;;;;;;;;;26.50;47.80;;;;;;1504097;77;1498;-66
2022/06/30 02:16:01;;;;;;;;;;;26.60;47.70;;;;;;1505550;77;1934;-67
2022/06/30 02:18:03;;;;;;;;;;;26.50;47.80;;;;;;1506558;77;716;-65
2022/06/30 02:20:07;;;;;;;;;;;26.50;47.80;;;;;;1509009;77;1149;-66
2022/06/30 02:22:09;;;;;;;;;;;26.50;47.70;;;;;;1505929;79;647;-65
2022/06/30 02:24:10;;;;;;;;;;;26.60;47.70;;;;;;1505318;77;1668;-66
2022/06/30 02:26:12;;;;;;;;;;;26.50;47.70;;;;;;1512024;77;744;-66
2022/06/30 02:28:14;;;;;;;;;;;26.50;47.70;;;;;;1513328;77;697;-65
2022/06/30 02:30:16;;;;;;;;;;;26.50;47.60;;;;;;1508275;77;1173;-67
2022/06/30 02:32:20;;;;;;;;;;;26.50;47.60;;;;;;1508914;79;714;-66
2022/06/30 02:34:22;;;;;;;;;;;26.50;47.60;;;;;;1511005;77;1360;-65
2022/06/30 02:36:23;;;;;;;;;;;26.50;47.60;;;;;;1509895;79;1925;-64
2022/06/30 02:38:25;;;;;;;;;;;26.50;47.60;;;;;;1506429;77;1747;-65
2022/06/30 02:40:27;;;;;;;;;;;26.50;47.60;;;;;;1506593;77;1146;-65
2022/06/30 02:42:29;;;;;;;;;;;26.50;47.60;;;;;;1509242;77;670;-66
2022/06/30 02:44:31;;;;;;;;;;;26.50;47.60;;;;;;1508045;78;682;-67
2022/06/30 02:46:33;;;;;;;;;;;26.40;47.60;;;;;;1507618;77;663;-64
2022/06/30 02:48:35;;;;;;;;;;;26.50;47.60;;;;;;1508195;77;656;-64
2022/06/30 02:50:37;;;;;;;;;;;26.50;47.60;;;;;;1508466;77;1610;-64
2022/06/30 02:52:38;;;;;;;;;;;26.50;47.60;;;;;;1510269;77;745;-63
2022/06/30 02:54:40;;;;;;;;;;;26.50;47.50;;;;;;1502905;79;686;-67
2022/06/30 02:56:42;;;;;;;;;;;26.50;47.50;;;;;;1512841;77;1949;-65
2022/06/30 02:58:44;;;;;;;;;;;26.50;47.60;;;;;;1509762;79;715;-65
2022/06/30 03:00:46;;;;;;;;;;;26.50;47.50;;;;;;1508417;77;1142;-64
2022/06/30 03:02:48;;;;;;;;;;;26.50;47.30;;;;;;1510106;77;692;-66
2022/06/30 03:04:50;;;;;;;;;;;26.50;47.30;;;;;;1507184;77;1537;-64
2022/06/30 03:06:55;;;;;;;;;;;26.50;47.30;;;;;;1508554;77;746;-65
2022/06/30 03:08:59;;;;;;;;;;;26.50;47.30;;;;;;1509509;78;1695;-64
2022/06/30 03:11:01;;;;;;;;;;;26.50;47.30;;;;;;1512071;77;1102;-65
2022/06/30 03:13:03;;;;;;;;;;;26.50;47.30;;;;;;1512874;77;751;-62
2022/06/30 03:15:05;;;;;;;;;;;26.50;47.20;;;;;;1509156;77;760;-65
2022/06/30 03:17:07;;;;;;;;;;;26.50;47.10;;;;;;1509023;78;1931;-64
2022/06/30 03:19:09;;;;;;;;;;;26.40;47.20;;;;;;1509058;77;1552;-67
2022/06/30 03:21:10;;;;;;;;;;;26.50;47.20;;;;;;1506684;77;1126;-65
2022/06/30 03:23:12;;;;;;;;;;;26.50;47.10;;;;;;1507785;77;698;-65
2022/06/30 03:25:14;;;;;;;;;;;26.50;47.00;;;;;;1506153;77;795;-65
2022/06/30 03:27:16;;;;;;;;;;;26.50;47.10;;;;;;1510287;77;758;-65
2022/06/30 03:29:18;;;;;;;;;;;26.50;47.10;;;;;;1511486;77;713;-64
2022/06/30 03:31:20;;;;;;;;;;;26.50;47.00;;;;;;1508962;77;1136;-63
2022/06/30 03:33:22;;;;;;;;;;;26.50;47.10;;;;;;1506662;77;1573;-66
2022/06/30 03:35:24;;;;;;;;;;;26.40;47.10;;;;;;1508095;77;785;-65
2022/06/30 03:37:26;;;;;;;;;;;26.40;47.00;;;;;;1501328;78;1918;-64
2022/06/30 03:39:27;;;;;;;;;;;26.40;47.10;;;;;;1500439;79;779;-66
2022/06/30 03:41:29;;;;;;;;;;;26.40;47.10;;;;;;1508902;77;830;-65
2022/06/30 03:43:31;;;;;;;;;;;26.40;47.10;;;;;;1510184;77;691;-64
2022/06/30 03:45:33;;;;;;;;;;;26.50;46.90;;;;;;1507829;77;796;-68
2022/06/30 03:47:35;;;;;;;;;;;26.40;46.90;;;;;;1510587;77;1662;-65
2022/06/30 03:49:37;;;;;;;;;;;26.40;46.90;;;;;;1504613;76;1157;-65
2022/06/30 03:51:39;;;;;;;;;;;26.40;46.90;;;;;;1508593;79;683;-65
2022/06/30 03:53:40;;;;;;;;;;;26.50;46.80;;;;;;1505805;77;688;-66
2022/06/30 03:55:42;;;;;;;;;;;26.40;46.80;;;;;;1513442;77;697;-62
2022/06/30 03:57:44;;;;;;;;;;;26.40;46.80;;;;;;1507720;77;1943;-64
2022/06/30 03:59:46;;;;;;;;;;;26.40;46.80;;;;;;1511907;77;1193;-65
2022/06/30 04:01:48;;;;;;;;;;;26.40;46.80;;;;;;1508195;78;1559;-65
2022/06/30 04:03:50;;;;;;;;;;;26.40;46.70;;;;;;1509835;77;701;-65
2022/06/30 04:05:52;;;;;;;;;;;26.40;46.70;;;;;;1510720;77;665;-64
2022/06/30 04:07:54;;;;;;;;;;;26.50;46.80;;;;;;1508561;77;749;-66
2022/06/30 04:09:55;;;;;;;;;;;26.50;46.80;;;;;;1513430;77;1129;-64
2022/06/30 04:11:57;;;;;;;;;;;26.40;46.70;;;;;;1506995;79;759;-65
2022/06/30 04:13:59;;;;;;;;;;;26.40;46.70;;;;;;1509456;77;734;-65
2022/06/30 04:16:01;;;;;;;;;;;26.40;46.70;;;;;;1503340;77;1586;-64
2022/06/30 04:18:03;;;;;;;;;;;26.40;46.70;;;;;;1498170;79;1977;-64
2022/06/30 04:20:05;;;;;;;;;;;26.40;46.70;;;;;;1509023;77;1146;-64
2022/06/30 04:22:07;;;;;;;;;;;26.50;46.70;;;;;;1508043;77;782;-64
2022/06/30 04:24:09;;;;;;;;;;;26.50;46.70;;;;;;1510895;77;824;-67
2022/06/30 04:26:11;;;;;;;;;;;26.50;46.70;;;;;;1510191;77;717;-63
2022/06/30 04:28:13;;;;;;;;;;;26.40;46.70;;;;;;1509230;79;684;-64
2022/06/30 04:30:15;;;;;;;;;;;26.40;46.80;;;;;;1509464;77;1571;-64
2022/06/30 04:34:37;;;;;;;;;;;26.40;46.60;;;;;;1509828;77;1634;-64
2022/06/30 04:36:39;;;;;;;;;;;26.40;46.70;;;;;;1505524;77;1931;-61
2022/06/30 04:38:41;;;;;;;;;;;26.40;46.60;;;;;;1509486;77;682;-64
2022/06/30 04:43:02;;;;;;;;;;;26.40;46.70;;;;;;1509269;77;1523;-66
2022/06/30 04:45:05;;;;;;;;;;;26.40;46.60;;;;;;1508913;77;766;-67
2022/06/30 04:47:07;;;;;;;;;;;26.50;46.70;;;;;;1502069;77;777;-63
2022/06/30 04:49:08;;;;;;;;;;;26.40;46.80;;;;;;1506680;77;775;-61
2022/06/30 04:51:10;;;;;;;;;;;26.40;46.80;;;;;;1507222;77;1121;-62
2022/06/30 04:53:12;;;;;;;;;;;26.30;46.80;;;;;;1509429;77;691;-62
2022/06/30 04:55:14;;;;;;;;;;;26.50;46.80;;;;;;1506208;77;756;-63
2022/06/30 04:57:16;;;;;;;;;;;26.40;46.80;;;;;;1511576;77;1934;-63
2022/06/30 04:59:18;;;;;;;;;;;26.40;46.80;;;;;;1509589;78;697;-64
2022/06/30 05:01:20;;;;;;;;;;;26.40;46.80;;;;;;1504425;77;1163;-63
2022/06/30 05:03:21;;;;;;;;;;;26.40;46.70;;;;;;1506998;77;745;-62
2022/06/30 05:05:23;;;;;;;;;;;26.40;46.70;;;;;;1509157;77;698;-63
2022/06/30 05:07:26;;;;;;;;;;;26.40;46.80;;;;;;1506711;77;757;-63
2022/06/30 05:09:27;;;;;;;;;;;26.40;46.80;;;;;;1508943;77;754;-63
2022/06/30 05:11:29;;;;;;;;;;;26.50;46.90;;;;;;1509013;78;1548;-67
2022/06/30 05:13:31;;;;;;;;;;;26.50;46.80;;;;;;1510330;77;705;-67
2022/06/30 05:15:34;;;;;;;;;;;26.60;46.80;;;;;;1514416;77;717;-67
2022/06/30 05:17:36;;;;;;;;;;;26.60;46.60;;;;;;1505065;77;1942;-67
2022/06/30 05:19:38;;;;;;;;;;;26.50;46.50;;;;;;1507537;77;1149;-68
2022/06/30 05:21:40;;;;;;;;;;;26.60;46.70;;;;;;1502410;77;754;-68
2022/06/30 05:26:28;;;;;;;;;;;26.50;46.70;;;;;;1509155;77;763;-69
2022/06/30 05:28:07;;;;;;;;;;;26.40;46.90;;;;;;1507146;77;1618;-68
2022/06/30 05:30:09;;;;;;;;;;;26.50;46.90;;;;;;1508221;77;1198;-69
2022/06/30 05:32:11;;;;;;;;;;;26.50;46.90;;;;;;1511089;77;762;-67
2022/06/30 05:34:13;;;;;;;;;;;26.50;47.00;;;;;;1509071;77;755;-71
2022/06/30 05:36:15;;;;;;;;;;;26.50;47.10;;;;;;1511037;77;754;-68
2022/06/30 05:38:17;;;;;;;;;;;26.60;47.40;;;;;;1508172;77;1913;-70
2022/06/30 05:40:19;;;;;;;;;;;26.70;47.10;;;;;;1506379;77;1379;-69
2022/06/30 05:42:20;;;;;;;;;;;26.60;47.10;;;;;;1509374;77;790;-69
2022/06/30 05:44:22;;;;;;;;;;;26.70;47.20;;;;;;1510902;77;765;-69
2022/06/30 05:46:24;;;;;;;;;;;26.70;47.20;;;;;;1510581;77;635;-68
2022/06/30 05:48:26;;;;;;;;;;;26.80;47.10;;;;;;1506675;77;700;-69
2022/06/30 05:50:28;;;;;;;;;;;26.90;47.10;;;;;;1505874;77;1148;-69
2022/06/30 05:52:30;;;;;;;;;;;26.90;47.00;;;;;;1509254;77;808;-70
2022/06/30 05:54:32;;;;;;;;;;;26.90;46.90;;;;;;1495901;77;1537;-70
2022/06/30 05:56:34;;;;;;;;;;;26.90;47.10;;;;;;1493770;77;685;-69
2022/06/30 05:58:35;;;;;;;;;;;27.00;47.60;;;;;;1510560;77;1931;-68
2022/06/30 06:00:37;;;;;;;;;;;27.10;47.50;;;;;;1504042;77;1183;-71
2022/06/30 06:02:39;;;;;;;;;;;27.00;47.50;;;;;;1506587;78;738;-70
2022/06/30 06:04:41;;;;;;;;;;;27.10;47.40;;;;;;1508604;77;620;-69
2022/06/30 06:06:43;;;;;;;;;;;27.10;47.30;;;;;;1511459;77;591;-68
2022/06/30 06:08:45;;;;;;;;;;;27.10;47.30;;;;;;1506758;77;1563;-70
2022/06/30 06:10:47;;;;;;;;;;;27.20;47.20;;;;;;1507294;77;1142;-70
2022/06/30 06:12:48;;;;;;;;;;;27.20;47.10;;;;;;1502899;77;661;-68
2022/06/30 06:14:50;;;;;;;;;;;27.20;47.20;;;;;;1512673;77;830;-68
2022/06/30 06:16:52;;;;;;;;;;;27.30;47.10;;;;;;1505086;77;1927;-68
2022/06/30 06:18:54;;;;;;;;;;;27.20;47.00;;;;;;1490582;77;749;-68
2022/06/30 06:20:56;;;;;;;;;;;27.30;47.00;;;;;;1506178;77;1086;-68
2022/06/30 06:22:58;;;;;;;;;;;27.30;47.00;;;;;;1513503;77;1562;-69
2022/06/30 06:25:00;;;;;;;;;;;27.30;46.90;;;;;;1505745;77;621;-67
2022/06/30 06:27:02;;;;;;;;;;;27.30;46.90;;;;;;1506800;77;758;-68
2022/06/30 06:29:06;;;;;;;;;;;27.40;46.80;;;;;;1496961;77;670;-68
2022/06/30 06:31:09;;;;;;;;;;;27.40;46.60;;;;;;1511650;77;1182;-68
2022/06/30 06:33:11;;;;;;;;;;;27.50;46.70;;;;;;1504778;77;692;-68
2022/06/30 06:35:13;;;;;;;;;;;27.40;46.50;;;;;;1510151;77;716;-68
2022/06/30 06:37:15;;;;;;;;;;;27.40;46.50;;;;;;1489511;77;1931;-67
2022/06/30 06:39:17;;;;;;;;;;;27.40;46.50;;;;;;1492204;77;688;-68
2022/06/30 06:41:24;;;;;;;;;;;27.50;46.30;;;;;;1519529;77;1092;-68
2022/06/30 06:43:23;;;;;;;;;;;27.50;46.40;;;;;;1506659;77;1267;-69
2022/06/30 06:45:25;;;;;;;;;;;27.50;46.30;;;;;;1505221;77;705;-69
2022/06/30 06:47:27;;;;;;;;;;;27.50;46.30;;;;;;1499859;77;689;-68
2022/06/30 06:49:30;;;;;;;;;;;27.70;46.10;;;;;;1512939;77;736;-68
2022/06/30 06:51:32;;;;;;;;;;;27.60;46.00;;;;;;1503209;77;1678;-68
2022/06/30 06:53:34;;;;;;;;;;;27.70;45.90;;;;;;1509357;77;634;-69
2022/06/30 06:55:36;;;;;;;;;;;27.70;45.80;;;;;;1502156;77;740;-69
2022/06/30 06:57:38;;;;;;;;;;;27.70;45.80;;;;;;1503345;77;1955;-69
2022/06/30 06:59:40;;;;;;;;;;;27.70;45.70;;;;;;1506555;77;1179;-68
2022/06/30 07:01:42;;;;;;;;;;;27.70;45.70;;;;;;1503767;77;755;-68
2022/06/30 07:03:44;;;;;;;;;;;27.80;45.50;;;;;;1506137;77;1594;-69
2022/06/30 07:05:46;;;;;;;;;;;27.80;45.50;;;;;;1508785;77;700;-67
2022/06/30 07:07:49;;;;;;;;;;;27.80;45.40;;;;;;1501731;79;654;-69
2022/06/30 07:09:51;;;;;;;;;;;27.80;45.30;;;;;;1505688;77;1111;-65
2022/06/30 07:11:53;;;;;;;;;;;27.90;45.10;;;;;;1509641;77;643;-70
2022/06/30 07:13:55;;;;;;;;;;;27.90;45.00;;;;;;1504875;77;691;-71
2022/06/30 07:15:57;;;;;;;;;;;28.00;45.70;;;;;;1509014;77;678;-73
2022/06/30 07:17:59;;;;;;;;;;;28.00;45.50;;;;;;1510080;77;1923;-69
2022/06/30 07:20:01;;;;;;;;;;;28.00;45.60;;;;;;1502101;77;1173;-70
2022/06/30 07:22:03;;;;;;;;;;;28.00;45.40;;;;;;1533660;73;222290;-70
2022/06/30 07:24:05;;;;;;;;;;;28.00;45.50;;;;;;1579997;74;702;-69
2022/06/30 07:26:07;;;;;;;;;;;28.10;45.40;;;;;;1586026;74;715;-68
2022/06/30 07:28:08;;;;;;;;;;;28.10;45.20;;;;;;1572473;74;579;-68
2022/06/30 07:30:11;;;;;;;;;;;28.10;45.30;;;;;;1573679;74;658;-67
2022/06/30 07:32:13;;;;;;;;;;;28.20;45.20;;;;;;1583118;72;1342;-68
2022/06/30 07:34:15;;;;;;;;;;;28.20;45.10;;;;;;1578103;74;653;-68
2022/06/30 07:36:17;;;;;;;;;;;28.10;45.00;;;;;;1578601;74;664;-68
2022/06/30 07:38:19;;;;;;;;;;;28.20;44.90;;;;;;1586561;74;1909;-68
2022/06/30 07:40:21;;;;;;;;;;;28.20;44.90;;;;;;1583884;74;639;-69
2022/06/30 07:42:22;;;;;;;;;;;28.20;44.90;;;;;;1584206;74;1440;-69
2022/06/30 07:44:25;;;;;;;;;;;28.20;44.90;;;;;;1578047;74;686;-68
2022/06/30 07:46:27;;;;;;;;;;;28.10;44.90;;;;;;1584627;74;1459;-67
2022/06/30 07:48:29;;;;;;;;;;;28.20;44.90;;;;;;1587883;74;700;-69
2022/06/30 07:50:31;;;;;;;;;;;28.10;45.00;;;;;;1579800;74;669;-69
2022/06/30 07:52:37;;;;;;;;;;;28.10;45.00;;;;;;1580041;74;1125;-66
2022/06/30 07:54:37;;;;;;;;;;;28.10;45.10;;;;;;1579506;74;989;-69
2022/06/30 07:56:38;;;;;;;;;;;28.10;45.00;;;;;;1579969;74;560;-70
2022/06/30 07:58:40;;;;;;;;;;;28.20;45.00;;;;;;1581424;74;1933;-69
2022/06/30 08:00:42;;;;;;;;;;;28.20;45.00;;;;;;1578125;74;1327;-69
2022/06/30 08:02:45;;;;;;;;;;;28.20;45.00;;;;;;1583298;74;1147;-69
2022/06/30 08:04:46;;;;;;;;;;;28.20;45.00;;;;;;1582664;74;701;-70
2022/06/30 08:06:48;;;;;;;;;;;28.20;45.00;;;;;;1579390;74;648;-69
2022/06/30 08:08:51;;;;;;;;;;;28.20;44.90;;;;;;1583407;74;677;-69
2022/06/30 08:10:53;;;;;;;;;;;28.30;44.80;;;;;;1586438;74;848;-69
2022/06/30 08:12:55;;;;;;;;;;;28.20;44.80;;;;;;1585035;74;1140;-70
2022/06/30 08:14:57;;;;;;;;;;;28.20;44.70;;;;;;1584816;74;1497;-70
2022/06/30 08:16:59;;;;;;;;;;;28.30;44.70;;;;;;1585135;74;816;-69
2022/06/30 08:19:02;;;;;;;;;;;28.30;44.80;;;;;;1584522;74;1931;-69
2022/06/30 08:21:04;;;;;;;;;;;28.30;44.80;;;;;;1584102;74;658;-68
2022/06/30 08:23:07;;;;;;;;;;;28.30;44.80;;;;;;1582651;74;1092;-69
2022/06/30 08:25:09;;;;;;;;;;;28.20;44.80;;;;;;1580319;74;680;-68
2022/06/30 08:27:11;;;;;;;;;;;28.40;44.90;;;;;;1582939;74;587;-70
2022/06/30 08:29:13;;;;;;;;;;;28.40;44.90;;;;;;1581810;74;1496;-70
2022/06/30 08:31:16;;;;;;;;;;;28.30;44.90;;;;;;1586022;74;793;-70
2022/06/30 08:33:18;;;;;;;;;;;28.30;45.00;;;;;;1583297;74;683;-70
2022/06/30 08:35:20;;;;;;;;;;;28.30;45.00;;;;;;1578799;74;717;-69
2022/06/30 08:37:22;;;;;;;;;;;28.20;45.00;;;;;;1582849;74;711;-69
2022/06/30 08:44:03;;;;;;;;;;;28.20;45.10;;;;;;1586140;74;1600;-72
2022/06/30 08:46:06;;;;;;;;;;;28.20;45.20;;;;;;1584309;74;544;-71
2022/06/30 08:48:08;;;;;;;;;;;28.30;45.20;;;;;;1585316;74;710;-72
2022/06/30 08:50:10;;;;;;;;;;;28.20;45.30;;;;;;1588669;74;645;-73
2022/06/30 08:52:12;;;;;;;;;;;28.20;45.10;;;;;;1579575;74;1125;-72
2022/06/30 08:54:14;;;;;;;;;;;28.20;45.20;;;;;;1587357;74;629;-72
2022/06/30 08:56:16;;;;;;;;;;;28.10;45.10;;;;;;1581263;74;1339;-73
2022/06/30 08:58:18;;;;;;;;;;;28.20;45.00;;;;;;1585858;74;1920;-72
2022/06/30 09:00:20;;;;;;;;;;;28.20;45.10;;;;;;1580538;74;732;-74
2022/06/30 09:02:22;;;;;;;;;;;28.30;45.00;;;;;;1584897;74;1261;-70
2022/06/30 09:04:24;;;;;;;;;;;28.20;45.10;;;;;;1582141;74;736;-70
2022/06/30 09:06:26;;;;;;;;;;;28.20;45.00;;;;;;1585513;74;737;-71
2022/06/30 09:08:28;;;;;;;;;;;28.20;45.10;;;;;;1583037;74;685;-73
2022/06/30 09:10:30;;;;;;;;;;;28.20;45.10;;;;;;1586188;74;1476;-70
2022/06/30 09:12:32;;;;;;;;;;;28.20;44.90;;;;;;1591537;74;1100;-71
2022/06/30 09:14:42;;;;;;;;;;;28.30;44.80;;;;;;1588319;74;651;-70
2022/06/30 09:16:53;;;;;;;;;;;28.20;44.90;;;;;;1578295;74;615;-70
2022/06/30 09:18:58;;;;;;;;;;;28.30;45.00;;;;;;1571769;74;1940;-71
2022/06/30 09:21:00;;;;;;;;;;;28.20;45.00;;;;;;1575587;74;729;-71
2022/06/30 09:23:04;;;;;;;;;;;28.30;44.90;;;;;;1577199;74;1106;-71
2022/06/30 09:25:09;;;;;;;;;;;28.20;44.80;;;;;;1574697;74;1428;-71
2022/06/30 09:27:24;;;;;;;;;;;28.30;44.70;;;;;;1582181;74;674;-70
2022/06/30 09:29:22;;;;;;;;;;;28.30;44.80;;;;;;1578143;74;1583;-71
2022/06/30 09:31:38;;;;;;;;;;;28.30;44.70;;;;;;1580685;74;1144;-71
2022/06/30 09:33:40;;;;;;;;;;;28.30;44.80;;;;;;1579300;74;700;-70
2022/06/30 09:35:42;;;;;;;;;;;28.20;44.70;;;;;;1579269;74;656;-70
2022/06/30 09:37:44;;;;;;;;;;;28.20;44.70;;;;;;1581310;74;659;-71
2022/06/30 09:39:46;;;;;;;;;;;28.20;44.80;;;;;;1583382;74;1945;-71
2022/06/30 09:41:48;;;;;;;;;;;28.20;44.80;;;;;;1580832;74;1104;-71
2022/06/30 09:43:50;;;;;;;;;;;28.20;44.80;;;;;;1580648;74;752;-71
2022/06/30 09:45:52;;;;;;;;;;;28.20;44.80;;;;;;1581956;74;691;-71
2022/06/30 09:47:54;;;;;;;;;;;28.20;44.80;;;;;;1583646;74;689;-70
2022/06/30 09:49:58;;;;;;;;;;;28.20;44.80;;;;;;1574978;74;690;-71
2022/06/30 09:52:03;;;;;;;;;;;28.10;44.80;;;;;;1575331;74;1156;-70
2022/06/30 09:54:06;;;;;;;;;;;28.10;44.70;;;;;;1581978;74;1463;-71
2022/06/30 09:56:12;;;;;;;;;;;28.20;44.80;;;;;;1578537;74;695;-72
2022/06/30 09:58:14;;;;;;;;;;;28.10;44.90;;;;;;1585149;74;1918;-71
2022/06/30 10:00:17;;;;;;;;;;;28.00;44.70;;;;;;1583318;74;769;-71
2022/06/30 10:02:18;;;;;;;;;;;28.00;45.00;;;;;;1586046;74;1144;-67
2022/06/30 10:04:20;;;;;;;;;;;28.00;45.00;;;;;;1552121;75;674;-71
2022/06/30 10:06:22;;;;;;;;;;;28.00;44.90;;;;;;1576139;74;578;-70
2022/06/30 10:08:26;;;;;;;;;;;28.00;45.00;;;;;;1571021;74;1603;-71
2022/06/30 10:10:29;;;;;;;;;;;28.00;44.90;;;;;;1588332;74;813;-68
2022/06/30 10:12:31;;;;;;;;;;;28.10;44.90;;;;;;1584476;74;1179;-68
2022/06/30 10:14:34;;;;;;;;;;;28.00;45.00;;;;;;1578442;74;678;-66
2022/06/30 10:16:36;;;;;;;;;;;28.10;45.00;;;;;;1584100;74;618;-68
2022/06/30 10:18:38;;;;;;;;;;;28.00;45.00;;;;;;1554153;75;1932;-68
2022/06/30 10:20:40;;;;;;;;;;;28.00;45.00;;;;;;1585117;74;1468;-68
2022/06/30 10:22:42;;;;;;;;;;;28.00;45.00;;;;;;1571474;74;1141;-70
2022/06/30 10:24:45;;;;;;;;;;;28.10;45.00;;;;;;1599019;73;790;-69
2022/06/30 10:29:06;;;;;;;;;;;28.10;44.80;;;;;;1580540;74;1628;-68
2022/06/30 10:31:20;;;;;;;;;;;28.00;44.90;;;;;;1587526;74;592;-67
2022/06/30 10:33:33;;;;;;;;;;;28.10;44.90;;;;;;1580438;74;674;-67
2022/06/30 10:35:48;;;;;;;;;;;28.10;45.00;;;;;;1581938;74;1505;-69
2022/06/30 10:37:52;;;;;;;;;;;28.10;45.00;;;;;;1584647;74;704;-66
2022/06/30 10:40:04;;;;;;;;;;;28.00;45.10;;;;;;1578688;74;1915;-67
2022/06/30 10:42:06;;;;;;;;;;;28.00;45.20;;;;;;1583059;74;1108;-68
2022/06/30 10:44:09;;;;;;;;;;;28.10;45.10;;;;;;1583817;74;716;-68
2022/06/30 10:46:11;;;;;;;;;;;28.10;45.10;;;;;;1578636;74;689;-67
2022/06/30 10:48:13;;;;;;;;;;;28.00;45.20;;;;;;1584521;74;670;-67
2022/06/30 10:50:16;;;;;;;;;;;28.00;45.10;;;;;;1583080;74;1507;-68
2022/06/30 10:52:22;;;;;;;;;;;28.00;45.20;;;;;;1591354;74;1899;-67
2022/06/30 10:54:30;;;;;;;;;;;28.00;45.20;;;;;;1583577;74;681;-67
2022/06/30 10:56:52;;;;;;;;;;;28.00;45.20;;;;;;1573126;74;645;-67
2022/06/30 10:59:07;;;;;;;;;;;28.00;45.20;;;;;;1580493;74;1945;-67
2022/06/30 11:01:11;;;;;;;;;;;28.00;45.20;;;;;;1582855;74;633;-65
2022/06/30 11:03:34;;;;;;;;;;;28.00;45.30;;;;;;1584915;74;1495;-69
2022/06/30 11:05:37;;;;;;;;;;;28.00;45.30;;;;;;1577795;74;1086;-67
2022/06/30 11:07:39;;;;;;;;;;;27.90;44.70;;;;;;1582975;74;972;-70
2022/06/30 11:09:49;;;;;;;;;;;28.00;45.30;;;;;;1584200;74;667;-67
2022/06/30 11:11:53;;;;;;;;;;;28.00;45.20;;;;;;1582670;74;1127;-67
2022/06/30 11:14:07;;;;;;;;;;;28.00;45.40;;;;;;1587382;74;799;-66
2022/06/30 11:16:09;;;;;;;;;;;27.90;44.70;;;;;;1584273;74;1644;-66
2022/06/30 11:18:11;;;;;;;;;;;28.00;45.30;;;;;;1555955;75;1497;-66
2022/06/30 11:20:13;;;;;;;;;;;28.00;45.00;;;;;;1584416;74;1935;-67
2022/06/30 11:22:16;;;;;;;;;;;27.90;44.40;;;;;;1592251;74;1154;-66
2022/06/30 11:24:17;;;;;;;;;;;27.90;44.40;;;;;;1584187;74;782;-67
2022/06/30 11:28:40;;;;;;;;;;;27.90;44.00;;;;;;1583891;74;1635;-66
2022/06/30 11:30:42;;;;;;;;;;;27.90;44.30;;;;;;1575326;74;705;-67
2022/06/30 11:32:44;;;;;;;;;;;27.90;44.20;;;;;;1584578;74;1564;-66
2022/06/30 11:34:46;;;;;;;;;;;27.90;44.20;;;;;;1582528;74;668;-66
2022/06/30 11:36:48;;;;;;;;;;;27.90;44.30;;;;;;1583637;74;675;-65
2022/06/30 11:38:58;;;;;;;;;;;27.90;44.20;;;;;;1579744;74;1902;-66
2022/06/30 11:41:54;;;;;;;;;;;27.90;44.30;;;;;;1579398;74;1031;-65
2022/06/30 11:43:05;;;;;;;;;;;27.90;44.30;;;;;;1574394;74;1165;-66
2022/06/30 11:45:16;;;;;;;;;;;27.90;44.30;;;;;;1575877;74;1463;-64
2022/06/30 11:47:18;;;;;;;;;;;27.90;44.20;;;;;;1583751;74;672;-65
2022/06/30 11:49:20;;;;;;;;;;;27.80;44.30;;;;;;1584016;74;674;-66
2022/06/30 11:51:22;;;;;;;;;;;27.80;44.40;;;;;;1584353;74;1149;-66
2022/06/30 11:53:24;;;;;;;;;;;27.90;44.30;;;;;;1583861;74;651;-65
2022/06/30 11:55:26;;;;;;;;;;;27.90;44.30;;;;;;1583991;74;641;-65
2022/06/30 11:57:29;;;;;;;;;;;27.90;44.30;;;;;;1582776;74;831;-66
2022/06/30 11:59:31;;;;;;;;;;;27.80;44.40;;;;;;1581625;74;1922;-65
2022/06/30 12:01:32;;;;;;;;;;;27.80;44.40;;;;;;1584648;74;1221;-65
2022/06/30 12:03:36;;;;;;;;;;;27.80;44.50;;;;;;1588931;74;656;-65
2022/06/30 12:05:38;;;;;;;;;;;27.70;44.50;;;;;;1587193;74;1016;-66
2022/06/30 12:07:40;;;;;;;;;;;27.80;44.60;;;;;;1584143;74;682;-70
2022/06/30 12:09:43;;;;;;;;;;;27.70;44.60;;;;;;1573209;74;741;-69
2022/06/30 12:11:45;;;;;;;;;;;27.70;44.70;;;;;;1587078;74;1174;-71
2022/06/30 12:13:47;;;;;;;;;;;27.70;44.60;;;;;;1588069;74;1558;-72
2022/06/30 12:15:51;;;;;;;;;;;27.70;44.60;;;;;;1583777;74;712;-70
2022/06/30 12:17:53;;;;;;;;;;;27.70;44.70;;;;;;1584100;74;826;-72
2022/06/30 12:19:55;;;;;;;;;;;27.80;44.70;;;;;;1592605;74;1901;-69
2022/06/30 12:21:57;;;;;;;;;;;27.80;44.60;;;;;;1584682;74;1154;-68
2022/06/30 12:23:59;;;;;;;;;;;27.70;44.60;;;;;;1581095;74;745;-69
2022/06/30 12:26:01;;;;;;;;;;;27.80;44.60;;;;;;1583399;74;721;-70
2022/06/30 12:28:03;;;;;;;;;;;27.80;44.50;;;;;;1585760;74;1458;-69
2022/06/30 12:30:06;;;;;;;;;;;27.80;44.60;;;;;;1582707;74;665;-69